Mungeranie Airport


Codes: YMUG/MNE
Name: Mungeranie Airport
City: Mungeranie
Country: Australia
Elevation: 0 ft.

Photos at Mungeranie Airport


   Photos courtesy of SpottingLog. You can add your own sightings and photos by signing up for a free trial today.



No photos found.

Weather at Mungeranie Airport


Time (UTC)DescriptionTempratureWindCloud coverageVisibilityPressureHumidity
16-Jun-2024 12:00Few Clouds15°C7 mph, SE21%10000m1022hPa52%
16-Jun-2024 15:00Few Clouds14°C7 mph, SE11%10000m1023hPa57%
16-Jun-2024 18:00Clear Sky12°C7 mph, SE5%10000m1023hPa62%
16-Jun-2024 21:00Clear Sky11°C7 mph, E4%10000m1023hPa65%
17-Jun-2024 00:00Clear Sky14°C9 mph, E5%10000m1024hPa56%
17-Jun-2024 03:00Clear Sky17°C7 mph, NE6%10000m1022hPa45%
17-Jun-2024 06:00Clear Sky18°C4 mph, NE6%10000m1021hPa40%
17-Jun-2024 09:00Clear Sky17°C7 mph, E7%10000m1021hPa43%
17-Jun-2024 12:00Clear Sky15°C7 mph, E7%10000m1022hPa48%
17-Jun-2024 15:00Scattered Clouds14°C9 mph, NE48%10000m1021hPa50%
17-Jun-2024 18:00Broken Clouds14°C9 mph, NE74%10000m1021hPa51%
17-Jun-2024 21:00Broken Clouds13°C9 mph, NE69%10000m1020hPa52%
18-Jun-2024 00:00Broken Clouds15°C11 mph, N83%10000m1021hPa44%
18-Jun-2024 03:00Overcast Clouds18°C13 mph, N100%10000m1019hPa37%
18-Jun-2024 06:00Overcast Clouds20°C16 mph, NW90%10000m1016hPa34%
18-Jun-2024 09:00Overcast Clouds19°C9 mph, N100%10000m1017hPa39%
18-Jun-2024 12:00Overcast Clouds18°C11 mph, N100%10000m1017hPa42%
18-Jun-2024 15:00Overcast Clouds18°C11 mph, NW100%10000m1016hPa42%
18-Jun-2024 18:00Light Rain16°C9 mph, SW93%10000m1016hPa68%
18-Jun-2024 21:00Light Rain16°C9 mph, SW97%10000m1017hPa75%
19-Jun-2024 00:00Light Rain17°C7 mph, SW95%10000m1018hPa66%
19-Jun-2024 03:00Overcast Clouds17°C11 mph, W100%10000m1017hPa63%
19-Jun-2024 06:00Light Rain17°C9 mph, W100%10000m1016hPa70%
19-Jun-2024 09:00Overcast Clouds16°C7 mph, NW91%10000m1017hPa70%
19-Jun-2024 12:00Overcast Clouds15°C9 mph, W91%10000m1018hPa73%
19-Jun-2024 15:00Broken Clouds15°C11 mph, SW73%10000m1018hPa51%
19-Jun-2024 18:00Broken Clouds13°C11 mph, SW76%10000m1019hPa62%
19-Jun-2024 21:00Overcast Clouds12°C11 mph, SW98%10000m1020hPa64%
20-Jun-2024 00:00Overcast Clouds13°C18 mph, SW88%10000m1022hPa54%
20-Jun-2024 03:00Scattered Clouds16°C18 mph, SW39%10000m1021hPa43%
20-Jun-2024 06:00Scattered Clouds17°C18 mph, SW31%10000m1020hPa38%
20-Jun-2024 09:00Few Clouds15°C11 mph, SW22%10000m1022hPa43%
20-Jun-2024 12:00Few Clouds14°C13 mph, SW17%10000m1024hPa48%
20-Jun-2024 15:00Clear Sky12°C13 mph, SW0%10000m1024hPa56%
20-Jun-2024 18:00Clear Sky11°C9 mph, SW0%10000m1025hPa59%
20-Jun-2024 21:00Clear Sky10°C9 mph, SW0%10000m1026hPa60%
21-Jun-2024 00:00Clear Sky12°C13 mph, S0%10000m1028hPa55%
21-Jun-2024 03:00Few Clouds15°C13 mph, S24%10000m1027hPa50%
21-Jun-2024 06:00Few Clouds17°C11 mph, S22%10000m1025hPa46%
21-Jun-2024 09:00Clear Sky15°C7 mph, S8%10000m1027hPa51%